Emporium, Pennsylvania
Current Conditions -  °F | °C
As of 12:53 AM on Sunday 23 Nov 2014 (Local Time) from KBFD Reporting Station
Overcast Overcast  
Wind Chill:   Ceiling: 3200
Heat Index:   Visibility: 10mi
Dew Point:   Wind: 10mph
Humidity: 73%   Direction: 230°SW
Pressure: 30.06"   Gusts: NA
Location:  41.51°N, 78.24°W
Report Text: KBFD 230553Z AUTO 23009KT 10SM OVC032 06/01 A3006 RMK AO2 RAB38E49 SLP194 P0000 60014 T00560011 10056 20022 53002
Loading
Personal Weather Stations






























Interactive Weather Map New forecast layout! Learn more

10-Day Weather Forecast

Advertisements
Track Severe Weather on mobile